Time;durP1;ratioP1;P1;durP2;ratioP2;P2;SDS_P1;SDS_P2;PMS_P1;PMS_P2;Temp;Humidity;BMP_temperature;BMP_pressure;BME280_temperature;BME280_humidity;BME280_pressure;Samples;Min_cycle;Max_cycle;Signal;HPM_P1;HPM_P2
2022/10/11 00:02:03;;;;;;;40.67;4.95;;;;;;;;;;6332517;22;20029;-61
2022/10/11 00:04:37;;;;;;;49.20;5.05;;;;;;;;;;6306402;22;20359;-61
2022/10/11 00:07:05;;;;;;;51.22;5.65;;;;;;;;;;6332668;22;20401;-61
2022/10/11 00:09:32;;;;;;;61.45;6.95;;;;;;;;;;6332165;22;20018;-61
2022/10/11 00:12:05;;;;;;;46.85;6.30;;;;;;;;;;6330277;22;20014;-61
2022/10/11 00:14:33;;;;;;;41.78;5.60;;;;;;;;;;6331389;22;20177;-52
2022/10/11 00:17:07;;;;;;;52.08;6.78;;;;;;;;;;6331686;22;20089;-50
2022/10/11 00:19:34;;;;;;;49.15;6.55;;;;;;;;;;6330938;22;20022;-50
2022/10/11 00:22:01;;;;;;;56.85;6.50;;;;;;;;;;6331162;22;20025;-47
2022/10/11 00:24:35;;;;;;;48.95;5.85;;;;;;;;;;6331485;22;20019;-51
2022/10/11 00:27:02;;;;;;;43.00;5.05;;;;;;;;;;6332429;22;20019;-52
2022/10/11 00:29:37;;;;;;;45.55;6.03;;;;;;;;;;6330572;22;20692;-49
2022/10/11 00:32:04;;;;;;;;;;;;;;;;;;6331589;22;20018;-59
2022/10/11 00:34:31;;;;;;;50.67;5.75;;;;;;;;;;6331834;22;20430;-61
2022/10/11 00:37:05;;;;;;;47.25;5.57;;;;;;;;;;6332243;22;20098;-58
2022/10/11 00:39:32;;;;;;;40.15;6.07;;;;;;;;;;6331577;22;20521;-58
2022/10/11 00:42:11;;;;;;;57.03;5.78;;;;;;;;;;6331600;22;20094;-59
2022/10/11 00:44:39;;;;;;;41.25;5.57;;;;;;;;;;6331730;22;20101;-59
2022/10/11 00:47:18;;;;;;;43.50;5.80;;;;;;;;;;6331277;22;20022;-58
2022/10/11 00:49:46;;;;;;;41.05;5.65;;;;;;;;;;6332420;22;20019;-58
2022/10/11 00:52:22;;;;;;;46.80;5.53;;;;;;;;;;6331840;22;20459;-61
2022/10/11 00:54:50;;;;;;;60.28;5.70;;;;;;;;;;6331119;22;20367;-61
2022/10/11 00:57:19;;;;;;;49.78;5.35;;;;;;;;;;6331925;22;20467;-61
2022/10/11 00:59:59;;;;;;;50.75;5.47;;;;;;;;;;6330409;22;20021;-61
2022/10/11 01:02:29;;;;;;;45.17;5.55;;;;;;;;;;6330328;22;20498;-61
2022/10/11 01:05:04;;;;;;;44.88;6.03;;;;;;;;;;6333039;22;20025;-61
2022/10/11 01:07:52;;;;;;;63.55;6.28;;;;;;;;;;6329819;22;20503;-61
2022/10/11 01:10:27;;;;;;;59.63;6.05;;;;;;;;;;6331630;22;20087;-49
2022/10/11 01:12:54;;;;;;;65.93;6.00;;;;;;;;;;6329273;22;20023;-59
2022/10/11 01:15:25;;;;;;;53.00;6.20;;;;;;;;;;6330987;22;20044;-51
2022/10/11 01:18:02;;;;;;;58.15;6.43;;;;;;;;;;6331376;22;20015;-48
2022/10/11 01:20:36;;;;;;;36.08;4.68;;;;;;;;;;6330415;22;20452;-48
2022/10/11 01:23:16;;;;;;;55.35;6.55;;;;;;;;;;6327959;22;20093;-48
2022/10/11 01:25:56;;;;;;;50.25;5.70;;;;;;;;;;6333391;22;20408;-49
2022/10/11 01:28:44;;;;;;;48.65;5.32;;;;;;;;;;6333005;22;20057;-49
2022/10/11 01:31:16;;;;;;;59.33;6.38;;;;;;;;;;6332515;22;20534;-59
2022/10/11 01:34:02;;;;;;;57.75;5.65;;;;;;;;;;6332104;22;20463;-61
2022/10/11 01:36:55;;;;;;;52.45;5.80;;;;;;;;;;6332890;22;20042;-62
2022/10/11 01:39:35;;;;;;;50.40;6.03;;;;;;;;;;6332086;22;20476;-61
2022/10/11 01:42:04;;;;;;;50.65;5.63;;;;;;;;;;6333425;22;20025;-61
2022/10/11 01:44:38;;;;;;;57.60;5.63;;;;;;;;;;6331246;22;20025;-61
2022/10/11 01:47:05;;;;;;;52.03;5.95;;;;;;;;;;6330753;22;20033;-61
2022/10/11 01:49:40;;;;;;;52.47;5.05;;;;;;;;;;6332003;22;20023;-61
2022/10/11 01:52:08;;;;;;;50.45;5.00;;;;;;;;;;6331271;22;20023;-48
2022/10/11 01:54:50;;;;;;;51.70;5.57;;;;;;;;;;6331490;22;20045;-49
2022/10/11 01:58:14;;;;;;;49.75;5.85;;;;;;;;;;6331848;22;20025;-50
2022/10/11 02:01:05;;;;;;;65.35;5.72;;;;;;;;;;6266515;22;20748;-51
2022/10/11 02:03:33;;;;;;;39.58;4.82;;;;;;;;;;6266565;22;20027;-51
2022/10/11 02:06:12;;;;;;;46.80;5.70;;;;;;;;;;6268683;22;20030;-51
2022/10/11 02:08:44;;;;;;;36.13;4.82;;;;;;;;;;6270207;22;20016;-48
2022/10/11 02:11:24;;;;;;;34.60;4.53;;;;;;;;;;6270810;22;20019;-48
2022/10/11 02:13:59;;;;;;;32.78;5.60;;;;;;;;;;6269824;22;20024;-50
2022/10/11 02:16:38;;;;;;;38.92;4.93;;;;;;;;;;6270380;22;20030;-50
2022/10/11 02:19:06;;;;;;;38.20;4.55;;;;;;;;;;6270792;22;20091;-49
2022/10/11 02:21:43;;;;;;;25.95;4.10;;;;;;;;;;6270631;22;20015;-51
2022/10/11 02:24:16;;;;;;;44.22;4.97;;;;;;;;;;6270111;22;20074;-52
2022/10/11 02:26:53;;;;;;;50.72;5.10;;;;;;;;;;6269308;22;20552;-59
2022/10/11 02:29:21;;;;;;;47.70;5.22;;;;;;;;;;6270203;22;20016;-61
2022/10/11 02:31:56;;;;;;;38.42;4.95;;;;;;;;;;6270283;22;20019;-62
2022/10/11 02:34:23;;;;;;;48.30;5.20;;;;;;;;;;6269039;22;20102;-61
2022/10/11 02:37:09;;;;;;;33.10;4.80;;;;;;;;;;6270178;22;20016;-61
2022/10/11 02:39:41;;;;;;;49.83;4.95;;;;;;;;;;6269388;22;20054;-61
2022/10/11 02:42:15;;;;;;;;;;;;;;;;;;6270154;22;20028;-61
2022/10/11 02:44:47;;;;;;;41.42;4.50;;;;;;;;;;6269447;22;19921;-61
2022/10/11 02:47:21;;;;;;;40.63;4.13;;;;;;;;;;6269997;22;20375;-61
2022/10/11 02:49:49;;;;;;;48.78;5.50;;;;;;;;;;6269991;22;20131;-61
2022/10/11 02:52:22;;;;;;;44.63;4.65;;;;;;;;;;6269435;22;20090;-61
2022/10/11 02:54:50;;;;;;;29.80;3.95;;;;;;;;;;6269546;22;20465;-61
2022/10/11 02:57:17;;;;;;;32.55;5.13;;;;;;;;;;6270834;22;20016;-61
2022/10/11 02:59:57;;;;;;;35.35;3.90;;;;;;;;;;6322478;22;20021;-61
2022/10/11 03:02:31;;;;;;;41.65;4.50;;;;;;;;;;6304025;22;20018;-61
2022/10/11 03:05:05;;;;;;;36.38;4.95;;;;;;;;;;6331316;22;20022;-59
2022/10/11 03:07:33;;;;;;;36.45;4.47;;;;;;;;;;6329726;22;20019;-59
2022/10/11 03:10:00;;;;;;;22.33;3.78;;;;;;;;;;6331786;22;20447;-59
2022/10/11 03:12:33;;;;;;;32.30;4.30;;;;;;;;;;6331537;22;20026;-59
2022/10/11 03:15:01;;;;;;;23.77;4.43;;;;;;;;;;6331627;22;20574;-59
2022/10/11 03:17:34;;;;;;;35.60;3.47;;;;;;;;;;6330106;22;20648;-60
2022/10/11 03:20:04;;;;;;;34.97;4.93;;;;;;;;;;6332205;22;20025;-59
2022/10/11 03:22:31;;;;;;;39.92;4.53;;;;;;;;;;6329582;22;20049;-59
2022/10/11 03:25:05;;;;;;;22.88;4.82;;;;;;;;;;6330223;22;20030;-50
2022/10/11 03:27:32;;;;;;;30.25;3.92;;;;;;;;;;6331692;22;20094;-61
2022/10/11 03:30:00;;;;;;;25.48;3.00;;;;;;;;;;6331375;22;20101;-61
2022/10/11 03:32:33;;;;;;;30.73;3.63;;;;;;;;;;6330119;22;20033;-61
2022/10/11 03:35:00;;;;;;;31.77;5.00;;;;;;;;;;6331734;22;20029;-61
2022/10/11 03:37:34;;;;;;;28.98;3.67;;;;;;;;;;6330059;22;20456;-61
2022/10/11 03:40:02;;;;;;;24.60;4.28;;;;;;;;;;6332168;22;20029;-61
2022/10/11 03:42:29;;;;;;;27.27;3.30;;;;;;;;;;6332656;22;20015;-62
2022/10/11 03:45:10;;;;;;;32.50;4.53;;;;;;;;;;6332106;22;20029;-49
2022/10/11 03:47:38;;;;;;;30.27;3.75;;;;;;;;;;6331275;22;20420;-47
2022/10/11 03:50:11;;;;;;;32.20;3.65;;;;;;;;;;6333036;22;20352;-48
2022/10/11 03:52:38;;;;;;;25.05;3.55;;;;;;;;;;6331016;22;20025;-46
2022/10/11 03:55:06;;;;;;;25.90;3.80;;;;;;;;;;6332506;22;20033;-49
2022/10/11 03:57:40;;;;;;;19.50;3.05;;;;;;;;;;6330473;22;20114;-51
2022/10/11 04:00:14;;;;;;;26.25;3.85;;;;;;;;;;6329434;22;20482;-47
2022/10/11 04:02:48;;;;;;;26.42;3.08;;;;;;;;;;6332217;22;20029;-59
2022/10/11 04:05:16;;;;;;;17.77;3.10;;;;;;;;;;6331616;22;20094;-60
2022/10/11 04:07:43;;;;;;;36.75;3.92;;;;;;;;;;6331199;22;20098;-61
2022/10/11 04:10:23;;;;;;;21.55;3.30;;;;;;;;;;6332987;22;20037;-60
2022/10/11 04:12:50;;;;;;;23.98;3.40;;;;;;;;;;6331672;22;20018;-61
2022/10/11 04:15:25;;;;;;;26.05;3.10;;;;;;;;;;6331975;22;20098;-61
2022/10/11 04:17:52;;;;;;;29.77;4.13;;;;;;;;;;6331187;22;20019;-61
2022/10/11 04:20:19;;;;;;;26.00;4.35;;;;;;;;;;6330874;22;20085;-61
2022/10/11 04:22:52;;;;;;;26.10;3.42;;;;;;;;;;6332723;22;20022;-59
2022/10/11 04:25:19;;;;;;;24.50;4.03;;;;;;;;;;6330762;22;20019;-51
2022/10/11 04:27:53;;;;;;;21.45;3.35;;;;;;;;;;6330838;22;20525;-47
2022/10/11 04:30:21;;;;;;;29.85;3.70;;;;;;;;;;6332107;22;20022;-47
2022/10/11 04:32:48;;;;;;;22.55;3.47;;;;;;;;;;6328927;22;20015;-50
2022/10/11 04:35:21;;;;;;;21.73;3.15;;;;;;;;;;6330046;22;20026;-47
2022/10/11 04:37:49;;;;;;;22.98;3.13;;;;;;;;;;6328208;22;20521;-47
2022/10/11 04:40:22;;;;;;;20.80;2.72;;;;;;;;;;6330453;22;20445;-61
2022/10/11 04:42:52;;;;;;;15.43;2.88;;;;;;;;;;6330936;22;20029;-61
2022/10/11 04:45:20;;;;;;;28.25;3.47;;;;;;;;;;6332477;22;20021;-48
2022/10/11 04:47:53;;;;;;;29.13;4.20;;;;;;;;;;6329285;22;20499;-48
2022/10/11 04:50:20;;;;;;;24.45;3.15;;;;;;;;;;6330971;22;20021;-50
2022/10/11 04:52:54;;;;;;;19.60;2.75;;;;;;;;;;6330587;22;20045;-47
2022/10/11 04:55:22;;;;;;;22.33;3.50;;;;;;;;;;6330868;22;20356;-48
2022/10/11 04:57:49;;;;;;;15.93;2.45;;;;;;;;;;6327468;22;20386;-51
2022/10/11 05:00:29;;;;;;;25.00;2.60;;;;;;;;;;6328528;22;20025;-62
2022/10/11 05:02:56;;;;;;;32.70;3.10;;;;;;;;;;6332737;22;20022;-51
2022/10/11 05:05:30;;;;;;;22.48;3.17;;;;;;;;;;6333101;22;20014;-52
2022/10/11 05:07:58;;;;;;;29.02;3.95;;;;;;;;;;6334235;22;20030;-48
2022/10/11 05:10:25;;;;;;;19.00;2.33;;;;;;;;;;6333385;22;20029;-49
2022/10/11 05:12:58;;;;;;;21.98;2.97;;;;;;;;;;6333143;22;20023;-50
2022/10/11 05:15:25;;;;;;;22.20;3.00;;;;;;;;;;6332170;22;20019;-49
2022/10/11 05:17:59;;;;;;;18.13;2.75;;;;;;;;;;6333527;22;20089;-59
2022/10/11 05:20:27;;;;;;;20.50;2.78;;;;;;;;;;6332102;22;20025;-63
2022/10/11 05:22:54;;;;;;;22.77;2.90;;;;;;;;;;6332947;22;20025;-49
2022/10/11 05:25:27;;;;;;;30.35;3.63;;;;;;;;;;6331928;22;20371;-49
2022/10/11 05:27:54;;;;;;;21.05;3.05;;;;;;;;;;6333185;22;20097;-50
2022/10/11 05:30:29;;;;;;;17.10;2.70;;;;;;;;;;6333882;22;20019;-52
2022/10/11 05:32:56;;;;;;;22.70;2.78;;;;;;;;;;6331818;22;20018;-51
2022/10/11 05:35:23;;;;;;;21.40;3.42;;;;;;;;;;6332878;22;20481;-52
2022/10/11 05:37:56;;;;;;;16.17;2.72;;;;;;;;;;6333263;22;20029;-60
2022/10/11 05:40:23;;;;;;;26.80;3.53;;;;;;;;;;6333512;22;20014;-62
2022/10/11 05:42:57;;;;;;;22.52;2.97;;;;;;;;;;6332845;22;20097;-62
2022/10/11 05:45:25;;;;;;;19.00;3.25;;;;;;;;;;6333495;22;20023;-63
2022/10/11 05:47:52;;;;;;;18.58;3.20;;;;;;;;;;6332429;22;20018;-62
2022/10/11 05:50:25;;;;;;;22.23;2.65;;;;;;;;;;6332531;22;20023;-61
2022/10/11 05:52:52;;;;;;;19.45;2.50;;;;;;;;;;6332933;22;20015;-63
2022/10/11 05:55:27;;;;;;;20.75;2.65;;;;;;;;;;6332838;22;20098;-62
2022/10/11 05:57:57;;;;;;;19.70;3.67;;;;;;;;;;6333329;22;20049;-61
2022/10/11 06:00:37;;;;;;;19.63;2.75;;;;;;;;;;6331367;22;20089;-59
2022/10/11 06:03:08;;;;;;;18.15;2.50;;;;;;;;;;6332050;22;20490;-59
2022/10/11 06:05:41;;;;;;;19.17;2.85;;;;;;;;;;6333082;22;20019;-59
2022/10/11 06:08:09;;;;;;;21.58;2.67;;;;;;;;;;6333353;22;20033;-58
2022/10/11 06:10:37;;;;;;;13.27;3.38;;;;;;;;;;6331978;22;20023;-59
2022/10/11 06:13:12;;;;;;;24.70;3.22;;;;;;;;;;6332973;22;20018;-59
2022/10/11 06:15:39;;;;;;;21.08;2.47;;;;;;;;;;6332814;22;20026;-59
2022/10/11 06:18:14;;;;;;;16.45;2.40;;;;;;;;;;6331457;22;20023;-60
2022/10/11 06:20:41;;;;;;;17.73;2.50;;;;;;;;;;6333383;22;20398;-62
2022/10/11 06:23:08;;;;;;;19.25;3.28;;;;;;;;;;6332651;22;20027;-63
2022/10/11 06:25:42;;;;;;;12.55;2.35;;;;;;;;;;6331662;22;20015;-62
2022/10/11 06:28:09;;;;;;;14.93;3.03;;;;;;;;;;6331886;22;20542;-62
2022/10/11 06:30:37;;;;;;;13.75;1.98;;;;;;;;;;6332951;22;20049;-62
2022/10/11 06:33:11;;;;;;;15.40;2.60;;;;;;;;;;6332253;22;20023;-63
2022/10/11 06:35:39;;;;;;;15.48;2.38;;;;;;;;;;6332956;22;20023;-57
2022/10/11 06:38:12;;;;;;;16.20;2.45;;;;;;;;;;6331880;22;20018;-48
2022/10/11 06:40:40;;;;;;;16.40;2.85;;;;;;;;;;6332301;22;20015;-46
2022/10/11 06:43:07;;;;;;;18.10;2.35;;;;;;;;;;6333188;22;20580;-52
2022/10/11 06:45:42;;;;;;;20.90;2.40;;;;;;;;;;6332646;22;20054;-48
2022/10/11 06:48:09;;;;;;;23.25;2.53;;;;;;;;;;6332504;22;20037;-49
2022/10/11 06:50:39;;;;;;;11.00;2.53;;;;;;;;;;6332425;22;20093;-47
2022/10/11 06:53:26;;;;;;;19.45;2.58;;;;;;;;;;6332727;22;20026;-63
2022/10/11 06:55:53;;;;;;;15.30;2.30;;;;;;;;;;6332486;22;20027;-60
2022/10/11 06:58:41;;;;;;;14.82;2.30;;;;;;;;;;6330239;22;20031;-63
2022/10/11 07:01:17;;;;;;;20.02;2.95;;;;;;;;;;6333635;22;20333;-62
2022/10/11 07:03:53;;;;;;;11.68;2.05;;;;;;;;;;6331829;22;20030;-63
2022/10/11 07:06:21;;;;;;;22.30;2.65;;;;;;;;;;6331401;22;20050;-62
2022/10/11 07:08:49;;;;;;;14.48;2.25;;;;;;;;;;6332346;22;20493;-62
2022/10/11 07:11:24;;;;;;;14.32;1.95;;;;;;;;;;6331956;22;20023;-62
2022/10/11 07:13:55;;;;;;;18.23;2.03;;;;;;;;;;6332733;22;20023;-59
2022/10/11 07:16:30;;;;;;;24.25;3.05;;;;;;;;;;6332440;22;20023;-52
2022/10/11 07:18:57;;;;;;;;;;;;;;;;;;6332504;22;20494;-47
2022/10/11 07:21:27;;;;;;;11.38;2.00;;;;;;;;;;6333232;22;19953;-48
2022/10/11 07:24:01;;;;;;;13.27;1.92;;;;;;;;;;6332216;22;20015;-50
2022/10/11 07:26:28;;;;;;;;;;;;;;;;;;6331590;22;20022;-47
2022/10/11 07:29:05;;;;;;;12.32;2.17;;;;;;;;;;6333256;22;19956;-48
2022/10/11 07:31:32;;;;;;;16.77;2.70;;;;;;;;;;6331303;22;20463;-63
2022/10/11 07:33:59;;;;;;;12.82;1.80;;;;;;;;;;6331449;22;20018;-63
2022/10/11 07:36:33;;;;;;;16.45;2.60;;;;;;;;;;6331683;22;20019;-59
2022/10/11 07:39:00;;;;;;;;;;;;;;;;;;6332670;22;20015;-59
2022/10/11 07:41:34;;;;;;;8.80;2.00;;;;;;;;;;6330435;22;20001;-59
2022/10/11 07:44:02;;;;;;;13.70;2.72;;;;;;;;;;6332525;22;20025;-59
2022/10/11 07:46:29;;;;;;;10.27;1.90;;;;;;;;;;6332246;22;20101;-59
2022/10/11 07:49:02;;;;;;;10.68;1.80;;;;;;;;;;6331772;22;20019;-59
2022/10/11 07:51:29;;;;;;;13.25;1.95;;;;;;;;;;6333821;22;20093;-63
2022/10/11 07:54:04;;;;;;;19.35;2.40;;;;;;;;;;6332513;22;20015;-48
2022/10/11 07:56:33;;;;;;;13.75;2.00;;;;;;;;;;6331119;22;20435;-49
2022/10/11 07:59:05;;;;;;;10.48;1.80;;;;;;;;;;6291540;22;20111;-50
2022/10/11 08:01:39;;;;;;;10.38;1.75;;;;;;;;;;6270533;22;20027;-52
2022/10/11 08:04:06;;;;;;;11.02;1.92;;;;;;;;;;6269653;22;20026;-54
2022/10/11 08:06:35;;;;;;;14.23;2.55;;;;;;;;;;6270015;22;20103;-52
2022/10/11 08:09:09;;;;;;;12.43;2.13;;;;;;;;;;6270112;22;20102;-59
2022/10/11 08:11:37;;;;;;;14.90;3.20;;;;;;;;;;6269619;22;20075;-60
2022/10/11 08:14:10;;;;;;;11.35;1.52;;;;;;;;;;6269685;22;20614;-60
2022/10/11 08:16:38;;;;;;;13.15;2.38;;;;;;;;;;6268973;22;20027;-60
2022/10/11 08:19:13;;;;;;;14.25;1.95;;;;;;;;;;6269855;22;20016;-60
2022/10/11 08:21:41;;;;;;;15.85;2.25;;;;;;;;;;6267841;22;20531;-61
2022/10/11 08:24:14;;;;;;;11.85;2.20;;;;;;;;;;6239430;22;20051;-60
2022/10/11 08:26:48;;;;;;;21.23;2.47;;;;;;;;;;6270354;22;20016;-61
2022/10/11 08:29:15;;;;;;;;;;;;;;;;;;6269800;22;20476;-60
2022/10/11 08:31:50;;;;;;;11.63;2.17;;;;;;;;;;6269004;22;19945;-62
2022/10/11 08:34:17;;;;;;;17.83;2.20;;;;;;;;;;6270601;22;20030;-62
2022/10/11 08:36:44;;;;;;;6.25;2.15;;;;;;;;;;6269880;22;20099;-63
2022/10/11 08:39:17;;;;;;;8.23;2.30;;;;;;;;;;6271503;22;20055;-62
2022/10/11 08:41:45;;;;;;;;;;;;;;;;;;6272258;22;20015;-61
2022/10/11 08:44:37;;;;;;;11.70;2.33;;;;;;;;;;6269880;22;19989;-61
2022/10/11 08:47:28;;;;;;;15.90;2.92;;;;;;;;;;6270770;22;20121;-59
2022/10/11 08:50:03;;;;;;;15.63;2.35;;;;;;;;;;6271555;22;20031;-61
2022/10/11 08:52:34;;;;;;;16.83;2.42;;;;;;;;;;6270795;22;20344;-61
2022/10/11 08:55:02;;;;;;;16.02;2.90;;;;;;;;;;6271054;22;20026;-62
2022/10/11 08:57:39;;;;;;;13.43;2.55;;;;;;;;;;6272714;22;20276;-62
2022/10/11 09:00:14;;;;;;;13.38;2.92;;;;;;;;;;6270360;22;20028;-62
2022/10/11 09:03:09;;;;;;;13.80;2.35;;;;;;;;;;6272226;22;20090;-62
2022/10/11 09:05:45;;;;;;;16.85;2.47;;;;;;;;;;6271840;22;20721;-62
2022/10/11 09:08:25;;;;;;;14.35;2.08;;;;;;;;;;6271026;22;20033;-62
2022/10/11 09:10:52;;;;;;;14.05;2.05;;;;;;;;;;6272193;22;20447;-60
2022/10/11 09:13:42;;;;;;;10.77;2.50;;;;;;;;;;6271249;22;20081;-59
2022/10/11 09:16:28;;;;;;;13.75;2.03;;;;;;;;;;6269850;22;20023;-60
2022/10/11 09:19:15;;;;;;;11.90;2.05;;;;;;;;;;6270978;22;20020;-60
2022/10/11 09:21:48;;;;;;;11.07;2.05;;;;;;;;;;6271206;22;20042;-59
2022/10/11 09:24:34;;;;;;;14.02;2.15;;;;;;;;;;6270122;22;20057;-59
2022/10/11 09:27:05;;;;;;;16.67;2.67;;;;;;;;;;6270869;22;20020;-59
2022/10/11 09:30:00;;;;;;;11.50;2.53;;;;;;;;;;6271203;22;20023;-61
2022/10/11 09:32:30;;;;;;;16.80;2.78;;;;;;;;;;6254936;22;20350;-62
2022/10/11 09:35:11;;;;;;;11.32;1.90;;;;;;;;;;6271378;22;20027;-62
2022/10/11 09:37:52;;;;;;;14.27;2.40;;;;;;;;;;6270541;22;20098;-62
2022/10/11 09:40:42;;;;;;;17.73;2.25;;;;;;;;;;6270263;22;20023;-62
2022/10/11 09:43:16;;;;;;;14.30;2.30;;;;;;;;;;6270823;22;20019;-62
2022/10/11 09:45:50;;;;;;;12.23;2.83;;;;;;;;;;6269188;22;20024;-50
2022/10/11 09:48:20;;;;;;;10.90;2.25;;;;;;;;;;6272329;22;20094;-52
2022/10/11 09:50:56;;;;;;;11.02;1.92;;;;;;;;;;6272070;22;20116;-52
2022/10/11 09:53:43;;;;;;;10.68;2.25;;;;;;;;;;6269527;22;20019;-56
2022/10/11 09:56:18;;;;;;;12.13;2.45;;;;;;;;;;6269973;22;20024;-50
2022/10/11 09:59:12;;;;;;;15.30;2.63;;;;;;;;;;6272389;22;20016;-49
2022/10/11 10:01:47;;;;;;;16.45;2.72;;;;;;;;;;6269003;22;20028;-48
2022/10/11 10:04:16;;;;;;;15.38;2.10;;;;;;;;;;6269669;22;20105;-61
2022/10/11 10:06:43;;;;;;;14.10;2.30;;;;;;;;;;6271088;22;20098;-47
2022/10/11 10:09:21;;;;;;;10.35;2.33;;;;;;;;;;6269407;22;20460;-60
2022/10/11 10:11:49;;;;;;;11.63;2.30;;;;;;;;;;6270129;22;20675;-60
2022/10/11 10:14:24;;;;;;;15.18;2.28;;;;;;;;;;6269734;22;20457;-60
2022/10/11 10:16:59;;;;;;;12.00;2.17;;;;;;;;;;6269820;22;20501;-60
2022/10/11 10:19:39;;;;;;;13.80;2.83;;;;;;;;;;6269861;22;20023;-60
2022/10/11 10:22:11;;;;;;;;;;;;;;;;;;6271089;22;20338;-60
2022/10/11 10:24:45;;;;;;;16.65;2.70;;;;;;;;;;6268515;22;19989;-60
2022/10/11 10:27:36;;;;;;;18.83;3.17;;;;;;;;;;6269683;22;20016;-59
2022/10/11 10:30:15;;;;;;;15.20;2.55;;;;;;;;;;6270799;22;20039;-59
2022/10/11 10:33:09;;;;;;;5.50;1.83;;;;;;;;;;6269455;22;20043;-60
2022/10/11 10:35:40;;;;;;;8.85;1.92;;;;;;;;;;6270294;22;20430;-59
2022/10/11 10:38:34;;;;;;;7.38;1.73;;;;;;;;;;6269611;22;20644;-59
2022/10/11 10:41:03;;;;;;;7.72;1.75;;;;;;;;;;6269724;22;20054;-59
2022/10/11 10:43:38;;;;;;;9.57;1.80;;;;;;;;;;6268708;22;20576;-61
2022/10/11 10:46:08;;;;;;;11.45;2.22;;;;;;;;;;6268356;22;20038;-60
2022/10/11 10:48:55;;;;;;;7.63;1.70;;;;;;;;;;6269916;22;20069;-60
2022/10/11 10:51:56;;;;;;;8.80;2.03;;;;;;;;;;6269226;22;20074;-60
2022/10/11 10:54:49;;;;;;;10.60;2.30;;;;;;;;;;6268673;22;20098;-59
2022/10/11 10:57:22;;;;;;;14.82;2.10;;;;;;;;;;6269844;22;20027;-60
2022/10/11 11:00:03;;;;;;;9.43;2.03;;;;;;;;;;6288176;22;20022;-59
2022/10/11 11:02:46;;;;;;;11.23;2.40;;;;;;;;;;6331693;22;20688;-62
2022/10/11 11:05:26;;;;;;;11.13;2.30;;;;;;;;;;6330427;22;20062;-60
2022/10/11 11:08:02;;;;;;;10.48;2.67;;;;;;;;;;6331373;22;20826;-60
2022/10/11 11:10:42;;;;;;;12.50;2.03;;;;;;;;;;6332055;22;20018;-60
2022/10/11 11:13:32;;;;;;;12.88;2.72;;;;;;;;;;6330614;22;20023;-59
2022/10/11 11:16:25;;;;;;;12.10;2.00;;;;;;;;;;6331901;22;20098;-60
2022/10/11 11:19:04;;;;;;;7.28;2.05;;;;;;;;;;6332077;22;20459;-60
2022/10/11 11:21:39;;;;;;;9.73;1.92;;;;;;;;;;6331822;22;20022;-60
2022/10/11 11:24:11;;;;;;;14.63;2.22;;;;;;;;;;6305854;22;20479;-60
2022/10/11 11:26:46;;;;;;;9.57;1.92;;;;;;;;;;6332664;22;20098;-60
2022/10/11 11:29:26;;;;;;;13.57;2.70;;;;;;;;;;6332023;22;20033;-60
2022/10/11 11:32:03;;;;;;;6.47;1.50;;;;;;;;;;6333469;22;20094;-60
2022/10/11 11:34:39;;;;;;;13.02;1.80;;;;;;;;;;6332729;22;20015;-60
2022/10/11 11:37:39;;;;;;;10.10;1.63;;;;;;;;;;6331777;22;20503;-60
2022/10/11 11:40:12;;;;;;;11.32;2.03;;;;;;;;;;6286317;22;20018;-60
2022/10/11 11:43:00;;;;;;;8.70;1.73;;;;;;;;;;6332086;22;20081;-62
2022/10/11 11:45:45;;;;;;;9.50;1.80;;;;;;;;;;6304918;22;20027;-61
2022/10/11 11:48:17;;;;;;;4.30;1.15;;;;;;;;;;6332301;22;20066;-61
2022/10/11 11:50:58;;;;;;;8.10;1.70;;;;;;;;;;6330980;22;20103;-61
2022/10/11 11:53:35;;;;;;;6.85;1.83;;;;;;;;;;6330720;22;20110;-61
2022/10/11 11:56:31;;;;;;;10.13;1.67;;;;;;;;;;6330132;22;20023;-61
2022/10/11 11:59:08;;;;;;;5.63;1.70;;;;;;;;;;6318739;22;20539;-51
2022/10/11 12:01:53;;;;;;;6.10;1.83;;;;;;;;;;6332803;22;20097;-49
2022/10/11 12:04:24;;;;;;;4.35;1.15;;;;;;;;;;6332711;22;20022;-48
2022/10/11 12:07:00;;;;;;;11.07;1.50;;;;;;;;;;6331992;22;20023;-51
2022/10/11 12:09:43;;;;;;;7.00;1.30;;;;;;;;;;6330238;22;20042;-50
2022/10/11 12:12:32;;;;;;;6.78;1.23;;;;;;;;;;6332577;22;20533;-53
2022/10/11 12:15:09;;;;;;;8.95;1.50;;;;;;;;;;6329780;22;20018;-49
2022/10/11 12:17:55;;;;;;;8.30;1.65;;;;;;;;;;6331248;22;20019;-60
2022/10/11 12:20:30;;;;;;;4.57;1.00;;;;;;;;;;6332783;22;20403;-49
2022/10/11 12:23:23;;;;;;;6.22;1.17;;;;;;;;;;6330677;22;20029;-49
2022/10/11 12:26:17;;;;;;;7.30;1.40;;;;;;;;;;6331012;22;20019;-50
2022/10/11 12:29:09;;;;;;;4.60;1.27;;;;;;;;;;6299814;22;20026;-49
2022/10/11 12:31:36;;;;;;;6.70;1.33;;;;;;;;;;6331649;22;20050;-49
2022/10/11 12:34:20;;;;;;;5.72;1.50;;;;;;;;;;6330208;22;20019;-49
2022/10/11 12:36:48;;;;;;;8.00;1.55;;;;;;;;;;6330691;22;20025;-51
2022/10/11 12:39:21;;;;;;;6.13;2.05;;;;;;;;;;6331673;22;20023;-60
2022/10/11 12:41:49;;;;;;;5.45;1.63;;;;;;;;;;6332138;22;20021;-60
2022/10/11 12:44:27;;;;;;;5.82;1.40;;;;;;;;;;6331065;22;20015;-60
2022/10/11 12:46:54;;;;;;;5.82;1.20;;;;;;;;;;6330642;22;20121;-60
2022/10/11 12:49:43;;;;;;;5.70;1.23;;;;;;;;;;6331533;22;20023;-60
2022/10/11 12:52:16;;;;;;;12.77;2.13;;;;;;;;;;6331092;22;20110;-60
2022/10/11 12:54:50;;;;;;;7.78;1.67;;;;;;;;;;6330676;22;20045;-61
2022/10/11 12:57:18;;;;;;;;;;;;;;;;;;6332512;22;20029;-59
2022/10/11 13:00:34;;;;;;;7.47;1.67;;;;;;;;;;6329669;22;19918;-48
2022/10/11 13:03:04;;;;;;;9.43;1.73;;;;;;;;;;6251579;22;20483;-48
2022/10/11 13:05:38;;;;;;;11.38;2.30;;;;;;;;;;6330560;22;20033;-47
2022/10/11 13:08:30;;;;;;;6.85;1.33;;;;;;;;;;6331550;22;20088;-50
2022/10/11 13:11:05;;;;;;;5.97;1.20;;;;;;;;;;6331935;22;20502;-46
2022/10/11 13:13:37;;;;;;;6.93;1.63;;;;;;;;;;6331377;22;20528;-47
2022/10/11 13:16:16;;;;;;;8.73;1.75;;;;;;;;;;6332287;22;20098;-60
2022/10/11 13:18:44;;;;;;;7.75;2.00;;;;;;;;;;6331609;22;20022;-60
2022/10/11 13:21:25;;;;;;;6.72;1.58;;;;;;;;;;6332600;22;20239;-59
2022/10/11 13:24:00;;;;;;;7.82;1.75;;;;;;;;;;6332983;22;20101;-59
2022/10/11 13:26:34;;;;;;;7.78;1.80;;;;;;;;;;6332314;22;20022;-60
2022/10/11 13:29:01;;;;;;;;;;;;;;;;;;6333343;22;20015;-59
2022/10/11 13:31:35;;;;;;;9.77;2.08;;;;;;;;;;6331828;22;20318;-59
2022/10/11 13:34:02;;;;;;;7.40;1.50;;;;;;;;;;6333020;22;20021;-60
2022/10/11 13:36:31;;;;;;;8.70;1.30;;;;;;;;;;6332416;22;20022;-61
2022/10/11 13:39:05;;;;;;;5.90;1.48;;;;;;;;;;6332793;22;20845;-61
2022/10/11 13:41:34;;;;;;;11.05;1.80;;;;;;;;;;6334214;22;20092;-61
2022/10/11 13:44:09;;;;;;;7.55;1.73;;;;;;;;;;6332147;22;20029;-61
2022/10/11 13:46:37;;;;;;;6.25;1.58;;;;;;;;;;6333155;22;20029;-60
2022/10/11 13:49:25;;;;;;;8.20;1.30;;;;;;;;;;6334486;22;20023;-60
2022/10/11 13:52:01;;;;;;;12.32;2.30;;;;;;;;;;6334054;22;20406;-59
2022/10/11 13:54:54;;;;;;;8.75;1.80;;;;;;;;;;6332969;22;20098;-59
2022/10/11 13:57:23;;;;;;;9.85;1.65;;;;;;;;;;6333810;22;20102;-58
2022/10/11 14:00:18;;;;;;;11.18;1.70;;;;;;;;;;6331553;22;20098;-58
2022/10/11 14:02:57;;;;;;;7.63;1.60;;;;;;;;;;6332733;22;20427;-58
2022/10/11 14:05:31;;;;;;;9.32;1.75;;;;;;;;;;6330708;22;20023;-58
2022/10/11 14:07:59;;;;;;;4.85;1.40;;;;;;;;;;6332938;22;20090;-58
2022/10/11 14:10:26;;;;;;;5.78;1.48;;;;;;;;;;6332848;22;20763;-59
2022/10/11 14:13:21;;;;;;;5.28;1.35;;;;;;;;;;6333223;22;20050;-60
2022/10/11 14:15:59;;;;;;;8.70;1.60;;;;;;;;;;6331102;22;20015;-59
2022/10/11 14:18:39;;;;;;;8.48;1.50;;;;;;;;;;6332966;22;20019;-59
2022/10/11 14:21:19;;;;;;;9.00;1.73;;;;;;;;;;6332004;22;20348;-59
2022/10/11 14:23:54;;;;;;;7.70;1.50;;;;;;;;;;6331797;22;20117;-59
2022/10/11 14:26:31;;;;;;;9.60;1.60;;;;;;;;;;6329250;22;20037;-58
2022/10/11 14:29:07;;;;;;;13.73;1.77;;;;;;;;;;6332175;22;20050;-58
2022/10/11 14:31:34;;;;;;;5.57;1.40;;;;;;;;;;6331832;22;20066;-58
2022/10/11 14:34:07;;;;;;;6.97;1.73;;;;;;;;;;6331969;22;20022;-59
2022/10/11 14:36:41;;;;;;;6.30;1.50;;;;;;;;;;6332662;22;20333;-60
2022/10/11 14:39:13;;;;;;;6.57;1.80;;;;;;;;;;6332598;22;20026;-60
2022/10/11 14:41:40;;;;;;;9.43;1.33;;;;;;;;;;6332031;22;20387;-60
2022/10/11 14:44:15;;;;;;;9.63;1.60;;;;;;;;;;6332064;22;20019;-60
2022/10/11 14:46:43;;;;;;;12.55;2.08;;;;;;;;;;6331413;22;20023;-60
2022/10/11 14:49:23;;;;;;;10.20;1.98;;;;;;;;;;6332416;22;20095;-60
2022/10/11 14:51:58;;;;;;;6.32;1.42;;;;;;;;;;6331102;22;20102;-61
2022/10/11 14:54:33;;;;;;;7.75;1.73;;;;;;;;;;6332112;22;20244;-60
2022/10/11 16:22:25;;;;;;;8.10;1.80;;;;;;;;;;6295030;22;20228;-62
2022/10/11 16:25:01;;;;;;;8.20;1.50;;;;;;;;;;6301643;22;20031;-58
2022/10/11 16:27:28;;;;;;;6.53;1.63;;;;;;;;;;6298125;22;20069;-59
2022/10/11 16:29:55;;;;;;;8.02;1.60;;;;;;;;;;6327859;22;20094;-59
2022/10/11 16:32:31;;;;;;;11.68;1.95;;;;;;;;;;6328109;22;20019;-60
2022/10/11 16:34:58;;;;;;;16.98;2.15;;;;;;;;;;6326668;22;20033;-59
2022/10/11 16:37:32;;;;;;;8.15;2.08;;;;;;;;;;6328478;22;20468;-59
2022/10/11 16:39:59;;;;;;;;;;;;;;;;;;6328723;22;20499;-60
2022/10/11 16:42:33;;;;;;;9.20;1.98;;;;;;;;;;6321573;22;20335;-59
2022/10/11 16:45:00;;;;;;;9.82;1.88;;;;;;;;;;6325931;22;20030;-60